Terminal Aerodrome Forecast
Issued by NWS

Home | Current Version | Previous Version | Text Only | Print | Product List | Glossary On
Versions: 1 2 3 4 5 6 7 8 9 10 11 12 13
907
FTUS46 KHNX 102340
TAFMCE
TAF
KMCE 102340Z 1100/1124 VRB03KT 6SM HZ FEW250
     FM110600 VRB03KT 4SM BR FEW250
      TEMPO 1111/1115 2SM BR
     FM111900 VRB04KT P6SM FEW250=

USA.gov is the U.S. government's official web portal to all federal, state and local government web resources and services.